createdAt,value
2022-08-01T00:00:11.920Z,99.90
2022-08-01T00:02:40.856Z,99.90
2022-08-01T00:05:11.556Z,99.90
2022-08-01T00:07:40.346Z,99.90
2022-08-01T00:10:10.983Z,99.90
2022-08-01T00:12:39.410Z,99.90
2022-08-01T00:15:11.161Z,99.90
2022-08-01T00:17:40.417Z,99.90
2022-08-01T00:20:11.866Z,99.90
2022-08-01T00:22:40.467Z,99.90
2022-08-01T00:25:09.416Z,99.90
2022-08-01T00:27:38.005Z,99.90
2022-08-01T00:30:12.332Z,99.90
2022-08-01T00:32:42.634Z,99.90
2022-08-01T00:35:11.229Z,99.90
2022-08-01T00:37:39.560Z,99.90
2022-08-01T00:40:09.409Z,99.90
2022-08-01T00:42:43.020Z,99.90
2022-08-01T00:45:14.084Z,99.90
2022-08-01T00:47:42.543Z,99.90
2022-08-01T00:50:12.028Z,99.90
2022-08-01T00:52:42.378Z,99.90
2022-08-01T00:55:14.999Z,99.90
2022-08-01T00:58:03.522Z,99.90
2022-08-01T01:00:53.023Z,99.90
2022-08-01T01:03:55.951Z,99.90
2022-08-01T01:06:25.676Z,99.90
2022-08-01T01:09:09.113Z,99.90
2022-08-01T01:11:45.382Z,99.90
2022-08-01T01:14:25.402Z,99.90
2022-08-01T01:16:56.487Z,99.90
2022-08-01T01:19:30.809Z,99.90
2022-08-01T01:22:23.889Z,99.90
2022-08-01T01:25:06.737Z,99.90
2022-08-01T01:27:47.433Z,99.90
2022-08-01T01:30:17.725Z,99.90
2022-08-01T01:32:48.654Z,99.90
2022-08-01T01:35:21.896Z,99.90
2022-08-01T01:37:53.172Z,99.90
2022-08-01T01:40:23.051Z,99.90
2022-08-01T01:42:52.895Z,99.90
2022-08-01T01:45:25.531Z,99.90
2022-08-01T01:47:56.117Z,99.90
2022-08-01T01:50:25.780Z,99.90
2022-08-01T01:52:55.758Z,99.90
2022-08-01T01:55:27.784Z,99.90
2022-08-01T01:57:57.883Z,99.90
2022-08-01T02:00:28.624Z,99.90
2022-08-01T02:02:59.109Z,99.90
2022-08-01T02:05:29.070Z,99.90
2022-08-01T02:07:59.628Z,99.90
2022-08-01T02:10:29.911Z,99.90
2022-08-01T02:13:00.704Z,99.90
2022-08-01T02:15:31.841Z,99.90
2022-08-01T02:18:01.641Z,99.90
2022-08-01T02:20:32.916Z,99.90
2022-08-01T02:23:08.757Z,99.90
2022-08-01T02:26:09.514Z,99.90
2022-08-01T02:28:34.938Z,99.90
2022-08-01T02:31:08.827Z,99.90
2022-08-01T02:33:40.807Z,99.90
2022-08-01T02:36:31.400Z,99.90
2022-08-01T02:39:00.323Z,99.90
2022-08-01T02:41:30.980Z,99.90
2022-08-01T02:44:03.066Z,99.90
2022-08-01T02:46:40.508Z,99.90
2022-08-01T02:49:11.432Z,99.90
2022-08-01T02:51:42.823Z,99.90
2022-08-01T02:54:12.880Z,99.90
2022-08-01T02:56:43.745Z,99.90
2022-08-01T02:59:19.798Z,99.90
2022-08-01T03:01:55.185Z,99.90
2022-08-01T03:04:25.169Z,99.90
2022-08-01T03:06:55.011Z,99.90
2022-08-01T03:09:23.922Z,99.90
2022-08-01T03:11:52.780Z,99.90
2022-08-01T03:14:24.769Z,99.90
2022-08-01T03:16:56.178Z,99.90
2022-08-01T03:19:26.357Z,99.90
2022-08-01T03:21:55.028Z,99.90
2022-08-01T03:24:25.773Z,99.90
2022-08-01T03:26:55.811Z,99.90
2022-08-01T03:29:26.772Z,99.90
2022-08-01T03:31:59.342Z,99.90
2022-08-01T03:34:28.498Z,99.90
2022-08-01T03:37:03.545Z,99.90
2022-08-01T03:39:37.034Z,99.90
2022-08-01T03:42:15.745Z,99.90
2022-08-01T03:44:46.791Z,99.90
2022-08-01T03:47:19.546Z,99.90
2022-08-01T03:49:49.954Z,99.90
2022-08-01T03:52:18.709Z,99.90
2022-08-01T03:54:50.251Z,99.90
2022-08-01T03:57:20.186Z,99.90
2022-08-01T04:00:07.313Z,99.90
2022-08-01T04:02:37.397Z,99.90
2022-08-01T04:05:06.743Z,99.90
2022-08-01T04:07:36.949Z,99.90
2022-08-01T04:10:06.124Z,99.90
2022-08-01T04:12:35.963Z,99.90
2022-08-01T04:15:05.284Z,99.90
2022-08-01T04:17:33.712Z,99.90
2022-08-01T04:20:03.327Z,99.90
2022-08-01T04:22:32.645Z,99.90
2022-08-01T04:25:11.346Z,99.90
2022-08-01T04:27:48.547Z,99.90
2022-08-01T04:30:22.977Z,99.90
2022-08-01T04:32:53.161Z,99.90
2022-08-01T04:36:03.876Z,99.90
2022-08-01T04:38:15.234Z,99.90
2022-08-01T04:40:44.525Z,99.90
2022-08-01T04:43:14.958Z,99.90
2022-08-01T04:45:45.694Z,99.90
2022-08-01T04:48:17.336Z,99.90
2022-08-01T04:50:47.661Z,99.90
2022-08-01T04:53:17.833Z,99.90
2022-08-01T04:55:46.966Z,99.90
2022-08-01T04:58:18.282Z,99.90
2022-08-01T05:00:47.680Z,99.90
2022-08-01T05:03:16.191Z,99.90
2022-08-01T05:05:44.626Z,99.90
2022-08-01T05:08:14.217Z,99.90
2022-08-01T05:10:42.431Z,99.90
2022-08-01T05:13:11.967Z,99.90
2022-08-01T05:15:40.303Z,99.90
2022-08-01T05:18:09.611Z,99.90
2022-08-01T05:20:38.145Z,99.90
2022-08-01T05:23:10.224Z,99.90
2022-08-01T05:25:57.041Z,99.90
2022-08-01T05:28:26.484Z,99.90
2022-08-01T05:30:55.883Z,99.90
2022-08-01T05:33:24.315Z,99.90
2022-08-01T05:35:52.553Z,99.90
2022-08-01T05:38:20.742Z,99.90
2022-08-01T05:40:50.355Z,99.90
2022-08-01T05:43:18.946Z,99.90
2022-08-01T05:45:47.193Z,99.90
2022-08-01T05:48:15.441Z,99.90
2022-08-01T05:50:43.690Z,99.90
2022-08-01T05:53:12.001Z,99.90
2022-08-01T05:55:40.200Z,99.90
2022-08-01T05:58:11.508Z,99.90
2022-08-01T06:00:41.056Z,99.90
2022-08-01T06:03:09.269Z,99.90
2022-08-01T06:05:37.546Z,99.90
2022-08-01T06:08:06.221Z,99.90
2022-08-01T06:10:34.477Z,99.90
2022-08-01T06:13:04.036Z,99.90
2022-08-01T06:15:34.691Z,99.90
2022-08-01T06:18:03.452Z,99.90
2022-08-01T06:20:31.697Z,99.90
2022-08-01T06:23:01.075Z,99.90
2022-08-01T06:25:34.586Z,99.90
2022-08-01T06:28:02.865Z,99.90
2022-08-01T06:30:34.275Z,99.90
2022-08-01T06:33:02.517Z,99.90
2022-08-01T06:35:30.835Z,99.90
2022-08-01T06:37:59.088Z,99.90
2022-08-01T06:40:27.712Z,99.90
2022-08-01T06:42:55.905Z,99.90
2022-08-01T06:45:25.825Z,99.90
2022-08-01T06:47:55.543Z,99.90
2022-08-01T06:50:23.767Z,99.90
2022-08-01T06:52:52.091Z,99.90
2022-08-01T06:55:20.733Z,99.90
2022-08-01T06:57:52.120Z,99.90
2022-08-01T07:00:23.440Z,99.90
2022-08-01T07:02:52.005Z,99.90
2022-08-01T07:05:21.996Z,99.90
2022-08-01T07:07:50.318Z,99.90
2022-08-01T07:10:19.177Z,99.90
2022-08-01T07:12:47.395Z,99.90
2022-08-01T07:15:16.611Z,99.90
2022-08-01T07:17:45.227Z,99.90
2022-08-01T07:20:16.167Z,99.90
2022-08-01T07:22:47.611Z,99.90
2022-08-01T07:25:17.056Z,99.90
2022-08-01T07:27:45.644Z,99.90
2022-08-01T07:30:14.924Z,99.90
2022-08-01T07:32:43.225Z,99.90
2022-08-01T07:35:12.111Z,99.90
2022-08-01T07:37:45.206Z,99.90
2022-08-01T07:40:20.009Z,99.90
2022-08-01T07:42:48.977Z,99.90
2022-08-01T07:45:17.286Z,99.90
2022-08-01T07:47:46.278Z,99.90
2022-08-01T07:50:14.954Z,99.90
2022-08-01T07:52:43.461Z,99.90
2022-08-01T07:55:16.429Z,99.90
2022-08-01T07:57:46.747Z,99.90
2022-08-01T08:00:15.702Z,99.90
2022-08-01T08:02:45.058Z,99.90
2022-08-01T08:05:13.414Z,99.90
2022-08-01T08:07:41.718Z,99.90
2022-08-01T08:10:13.327Z,99.90
2022-08-01T08:12:41.753Z,99.90
2022-08-01T08:15:13.176Z,99.90
2022-08-01T08:17:41.889Z,99.90
2022-08-01T08:20:11.266Z,99.90
2022-08-01T08:22:43.036Z,99.90
2022-08-01T08:25:12.563Z,99.90
2022-08-01T08:27:40.976Z,99.90
2022-08-01T08:30:12.060Z,99.90
2022-08-01T08:32:42.271Z,99.90
2022-08-01T08:35:12.138Z,99.90
2022-08-01T08:37:42.852Z,99.90
2022-08-01T08:40:17.870Z,99.90
2022-08-01T08:42:47.879Z,99.90
2022-08-01T08:45:16.137Z,99.90
2022-08-01T08:47:47.979Z,99.90
2022-08-01T08:50:16.930Z,99.90
2022-08-01T08:52:46.926Z,99.90
2022-08-01T08:55:17.787Z,99.90
2022-08-01T08:57:48.449Z,99.90
2022-08-01T09:00:18.199Z,99.90
2022-08-01T09:02:50.115Z,99.90
2022-08-01T09:05:20.245Z,99.90
2022-08-01T09:07:48.601Z,99.90
2022-08-01T09:10:16.865Z,99.90
2022-08-01T09:13:07.665Z,99.90
2022-08-01T09:15:43.656Z,99.90
2022-08-01T09:18:28.982Z,99.90
2022-08-01T09:21:15.217Z,99.90
2022-08-01T09:23:53.362Z,99.90
2022-08-01T09:26:30.878Z,99.90
2022-08-01T09:29:00.166Z,99.90
2022-08-01T09:31:38.314Z,99.90
2022-08-01T09:34:11.031Z,99.90
2022-08-01T09:36:54.593Z,99.90
2022-08-01T09:39:25.105Z,99.90
2022-08-01T09:41:54.886Z,99.90
2022-08-01T09:44:44.065Z,99.90
2022-08-01T09:47:15.615Z,99.90
2022-08-01T09:49:51.927Z,99.90
2022-08-01T09:52:25.980Z,99.90
2022-08-01T09:55:01.692Z,99.90
2022-08-01T09:57:31.085Z,99.90
2022-08-01T10:00:01.849Z,99.90
2022-08-01T10:02:34.093Z,99.90
2022-08-01T10:05:08.190Z,99.90
2022-08-01T10:07:43.681Z,99.90
2022-08-01T10:10:14.458Z,99.90
2022-08-01T10:12:45.432Z,99.90
2022-08-01T10:15:18.071Z,99.90
2022-08-01T10:17:54.546Z,99.90
2022-08-01T10:20:31.047Z,99.90
2022-08-01T10:23:02.449Z,99.90
2022-08-01T10:25:42.488Z,99.90
2022-08-01T10:28:18.271Z,99.90
2022-08-01T10:30:53.384Z,99.90
2022-08-01T10:33:51.575Z,99.90
2022-08-01T10:36:14.587Z,99.90
2022-08-01T10:38:45.409Z,99.90
2022-08-01T10:41:16.343Z,99.90
2022-08-01T10:43:46.866Z,99.90
2022-08-01T10:46:15.951Z,99.90
2022-08-01T10:48:56.229Z,99.90
2022-08-01T10:51:52.216Z,99.90
2022-08-01T10:54:18.596Z,99.90
2022-08-01T10:56:49.837Z,99.90
2022-08-01T10:59:29.161Z,99.90
2022-08-01T11:02:32.127Z,99.90
2022-08-01T11:05:07.043Z,99.90
2022-08-01T11:07:49.810Z,99.90
2022-08-01T11:10:25.089Z,99.90
2022-08-01T11:12:54.586Z,99.90
2022-08-01T11:15:29.513Z,99.90
2022-08-01T11:18:01.401Z,99.90
2022-08-01T11:20:32.486Z,99.90
2022-08-01T11:23:35.934Z,99.90
2022-08-01T11:26:17.436Z,99.90
2022-08-01T11:29:10.869Z,99.90
2022-08-01T11:31:37.491Z,99.90
2022-08-01T11:34:06.937Z,99.90
2022-08-01T11:36:58.324Z,99.90
2022-08-01T11:39:27.306Z,99.90
2022-08-01T11:41:55.850Z,99.90
2022-08-01T11:44:28.334Z,99.90
2022-08-01T11:47:08.648Z,99.90
2022-08-01T11:49:51.532Z,99.90
2022-08-01T11:52:26.278Z,99.90
2022-08-01T11:54:57.992Z,99.90
2022-08-01T11:57:33.908Z,99.90
2022-08-01T12:00:07.644Z,99.90
2022-08-01T12:02:41.563Z,99.90
2022-08-01T12:05:12.911Z,99.90
2022-08-01T12:07:44.688Z,99.90
2022-08-01T12:10:16.430Z,99.90
2022-08-01T12:12:47.488Z,99.90
2022-08-01T12:15:16.461Z,99.90
2022-08-01T12:17:57.406Z,99.90
2022-08-01T12:20:31.262Z,99.90
2022-08-01T12:23:01.854Z,99.90
2022-08-01T12:25:31.543Z,99.90
2022-08-01T12:28:03.535Z,99.90
2022-08-01T12:30:36.047Z,99.90
2022-08-01T12:33:05.504Z,99.90
2022-08-01T12:35:34.430Z,99.90
2022-08-01T12:38:04.763Z,99.90
2022-08-01T12:40:35.801Z,99.90
2022-08-01T12:43:08.812Z,99.90
2022-08-01T12:45:54.487Z,99.90
2022-08-01T12:48:26.732Z,99.90
2022-08-01T12:50:58.550Z,99.90
2022-08-01T12:53:41.084Z,99.90
2022-08-01T12:56:12.376Z,99.90
2022-08-01T12:58:41.047Z,99.90
2022-08-01T13:01:12.558Z,99.90
2022-08-01T13:03:43.258Z,99.90
2022-08-01T13:06:15.464Z,99.90
2022-08-01T13:08:44.367Z,99.90
2022-08-01T13:11:16.652Z,99.50
2022-08-01T13:13:48.420Z,99.50
2022-08-01T13:16:31.131Z,99.00
2022-08-01T13:19:09.535Z,99.10
2022-08-01T13:21:53.325Z,95.40
2022-08-01T13:24:29.913Z,96.10
2022-08-01T13:27:02.092Z,96.30
2022-08-01T13:29:33.749Z,95.10
2022-08-01T13:32:02.873Z,91.70
2022-08-01T13:34:34.746Z,93.10
2022-08-01T13:37:03.694Z,91.00
2022-08-01T13:39:46.850Z,82.00
2022-08-01T13:42:19.299Z,81.30
2022-08-01T13:44:47.990Z,84.50
2022-08-01T13:47:17.403Z,86.30
2022-08-01T13:49:45.773Z,86.00
2022-08-01T13:52:14.045Z,88.50
2022-08-01T13:54:42.239Z,87.20
2022-08-01T13:57:10.538Z,79.60
2022-08-01T13:59:40.149Z,78.50
2022-08-01T14:02:09.169Z,82.70
2022-08-01T14:04:37.647Z,84.50
2022-08-01T14:07:10.703Z,82.70
2022-08-01T14:09:45.102Z,84.00
2022-08-01T14:12:32.311Z,82.90
2022-08-01T14:15:02.958Z,78.00
2022-08-01T14:17:31.282Z,81.00
2022-08-01T14:20:00.396Z,83.70
2022-08-01T14:22:28.724Z,81.80
2022-08-01T14:25:00.947Z,83.70
2022-08-01T14:27:31.807Z,84.50
2022-08-01T14:30:03.741Z,84.70
2022-08-01T14:32:34.408Z,83.20
2022-08-01T14:35:02.935Z,79.80
2022-08-01T14:37:37.624Z,79.50
2022-08-01T14:40:10.284Z,80.60
2022-08-01T14:42:39.428Z,77.10
2022-08-01T14:45:10.463Z,77.20
2022-08-01T14:47:40.872Z,77.70
2022-08-01T14:50:10.794Z,79.50
2022-08-01T14:52:40.956Z,79.70
2022-08-01T14:55:11.268Z,78.90
2022-08-01T14:57:40.626Z,75.70
2022-08-01T15:00:12.215Z,72.90
2022-08-01T15:02:42.054Z,74.50
2022-08-01T15:05:11.600Z,74.00
2022-08-01T15:07:51.696Z,72.50
2022-08-01T15:10:20.845Z,72.40
2022-08-01T15:12:50.559Z,74.90
2022-08-01T15:15:20.325Z,74.80
2022-08-01T15:17:50.592Z,73.70
2022-08-01T15:20:18.891Z,75.00
2022-08-01T15:22:51.533Z,72.90
2022-08-01T15:25:19.818Z,74.40
2022-08-01T15:27:48.630Z,75.20
2022-08-01T15:30:16.976Z,74.40
2022-08-01T15:32:53.034Z,75.80
2022-08-01T15:35:21.686Z,73.50
2022-08-01T15:37:52.683Z,73.30
2022-08-01T15:40:21.379Z,70.50
2022-08-01T15:42:49.914Z,72.10
2022-08-01T15:45:45.787Z,73.40
2022-08-01T15:48:09.810Z,72.70
2022-08-01T15:50:39.387Z,75.50
2022-08-01T15:53:08.217Z,76.20
2022-08-01T15:55:38.289Z,76.20
2022-08-01T15:58:11.586Z,75.30
2022-08-01T16:00:40.479Z,75.30
2022-08-01T16:03:10.792Z,72.20
2022-08-01T16:05:43.875Z,75.30
2022-08-01T16:08:12.899Z,73.70
2022-08-01T16:10:41.214Z,74.30
2022-08-01T16:13:10.079Z,73.70
2022-08-01T16:15:42.413Z,75.10
2022-08-01T16:18:14.463Z,75.20
2022-08-01T16:20:45.908Z,75.50
2022-08-01T16:23:15.153Z,75.80
2022-08-01T16:25:45.022Z,78.30
2022-08-01T16:28:14.195Z,79.10
2022-08-01T16:30:48.819Z,79.60
2022-08-01T16:33:40.197Z,80.90
2022-08-01T16:36:16.866Z,82.40
2022-08-01T16:38:45.803Z,83.60
2022-08-01T16:41:19.727Z,83.30
2022-08-01T16:43:54.284Z,82.80
2022-08-01T16:46:24.993Z,83.60
2022-08-01T16:48:55.370Z,82.10
2022-08-01T16:51:23.782Z,81.70
2022-08-01T16:53:52.050Z,81.40
2022-08-01T16:56:21.388Z,82.30
2022-08-01T16:58:49.607Z,84.10
2022-08-01T17:02:00.836Z,85.10
2022-08-01T17:04:09.268Z,85.40
2022-08-01T17:06:37.546Z,87.20
2022-08-01T17:09:06.224Z,87.10
2022-08-01T17:11:34.676Z,88.10
2022-08-01T17:14:03.146Z,88.50
2022-08-01T17:16:31.670Z,89.80
2022-08-01T17:18:59.959Z,90.00
2022-08-01T17:21:29.727Z,90.50
2022-08-01T17:23:58.162Z,90.60
2022-08-01T17:26:26.628Z,90.70
2022-08-01T17:28:54.942Z,91.00
2022-08-01T17:31:23.115Z,91.50
2022-08-01T17:33:54.759Z,91.80
2022-08-01T17:36:23.579Z,91.70
2022-08-01T17:38:53.173Z,91.60
2022-08-01T17:41:21.687Z,91.50
2022-08-01T17:43:49.939Z,91.70
2022-08-01T17:46:18.308Z,91.80
2022-08-01T17:48:46.750Z,91.70
2022-08-01T17:51:19.377Z,92.40
2022-08-01T17:53:56.800Z,92.10
2022-08-01T17:56:26.770Z,92.20
2022-08-01T17:58:54.962Z,92.40
2022-08-01T18:01:26.872Z,92.30
2022-08-01T18:03:57.376Z,92.40
2022-08-01T18:06:28.443Z,92.70
2022-08-01T18:09:01.826Z,92.70
2022-08-01T18:11:37.403Z,92.70
2022-08-01T18:14:06.528Z,93.00
2022-08-01T18:16:35.182Z,93.30
2022-08-01T18:19:03.658Z,93.20
2022-08-01T18:21:33.677Z,93.50
2022-08-01T18:24:03.328Z,93.80
2022-08-01T18:26:31.741Z,93.90
2022-08-01T18:28:59.946Z,93.90
2022-08-01T18:31:28.289Z,94.10
2022-08-01T18:33:56.606Z,94.30
2022-08-01T18:36:33.372Z,94.80
2022-08-01T18:39:10.478Z,95.10
2022-08-01T18:41:39.771Z,95.60
2022-08-01T18:44:09.181Z,96.00
2022-08-01T18:46:41.419Z,96.00
2022-08-01T18:49:11.529Z,96.80
2022-08-01T18:51:44.639Z,96.90
2022-08-01T18:54:14.923Z,97.50
2022-08-01T18:56:44.270Z,97.60
2022-08-01T18:59:13.927Z,97.80
2022-08-01T19:01:42.370Z,97.90
2022-08-01T19:04:11.060Z,98.70
2022-08-01T19:06:40.173Z,98.60
2022-08-01T19:09:09.885Z,99.80
2022-08-01T19:11:39.758Z,99.40
2022-08-01T19:14:07.985Z,99.90
2022-08-01T19:16:36.262Z,99.90
2022-08-01T19:19:07.080Z,99.90
2022-08-01T19:21:35.501Z,99.90
2022-08-01T19:24:23.790Z,99.90
2022-08-01T19:26:56.093Z,99.90
2022-08-01T19:29:35.378Z,99.90
2022-08-01T19:32:06.769Z,99.90
2022-08-01T19:34:37.738Z,99.90
2022-08-01T19:37:06.446Z,99.90
2022-08-01T19:39:35.440Z,99.90
2022-08-01T19:42:05.603Z,99.90
2022-08-01T19:44:34.771Z,99.90
2022-08-01T19:47:03.356Z,99.90
2022-08-01T19:49:31.731Z,99.90
2022-08-01T19:52:02.370Z,99.90
2022-08-01T19:54:35.640Z,99.90
2022-08-01T19:57:07.762Z,99.90
2022-08-01T19:59:37.432Z,99.90
2022-08-01T20:02:06.282Z,99.90
2022-08-01T20:04:35.677Z,99.90
2022-08-01T20:07:04.658Z,99.90
2022-08-01T20:09:33.460Z,99.90
2022-08-01T20:12:01.758Z,99.90
2022-08-01T20:14:31.342Z,99.90
2022-08-01T20:16:59.655Z,99.90
2022-08-01T20:19:29.455Z,99.90
2022-08-01T20:22:03.163Z,99.90
2022-08-01T20:24:40.964Z,99.90
2022-08-01T20:27:11.211Z,99.90
2022-08-01T20:29:41.156Z,99.90
2022-08-01T20:32:10.297Z,99.90
2022-08-01T20:34:40.089Z,99.90
2022-08-01T20:37:12.549Z,99.90
2022-08-01T20:39:43.902Z,99.90
2022-08-01T20:42:13.436Z,99.90
2022-08-01T20:44:45.255Z,99.90
2022-08-01T20:47:15.392Z,99.90
2022-08-01T20:49:44.868Z,99.90
2022-08-01T20:52:13.196Z,99.90
2022-08-01T20:54:42.568Z,99.90
2022-08-01T20:57:17.012Z,99.90
2022-08-01T20:59:55.841Z,99.90
2022-08-01T21:02:38.530Z,99.90
2022-08-01T21:05:10.811Z,99.90
2022-08-01T21:07:43.608Z,99.90
2022-08-01T21:10:15.228Z,99.90
2022-08-01T21:12:45.864Z,99.90
2022-08-01T21:15:23.286Z,99.90
2022-08-01T21:17:58.854Z,99.90
2022-08-01T21:20:57.110Z,99.90
2022-08-01T21:23:32.529Z,99.90
2022-08-01T21:26:01.872Z,99.90
2022-08-01T21:28:30.365Z,99.90
2022-08-01T21:31:01.415Z,99.90
2022-08-01T21:33:31.150Z,99.90
2022-08-01T21:36:06.094Z,99.90
2022-08-01T21:38:37.549Z,99.90
2022-08-01T21:41:09.272Z,99.90
2022-08-01T21:43:38.906Z,99.90
2022-08-01T21:46:10.121Z,99.90
2022-08-01T21:48:39.104Z,99.90
2022-08-01T21:51:28.023Z,99.90
2022-08-01T21:54:09.875Z,99.90
2022-08-01T21:56:50.004Z,99.90
2022-08-01T21:59:25.053Z,99.90
2022-08-01T22:02:04.125Z,99.90
2022-08-01T22:04:39.401Z,99.90
2022-08-01T22:07:11.402Z,99.90
2022-08-01T22:09:45.135Z,99.90
2022-08-01T22:12:18.106Z,99.90
2022-08-01T22:14:50.611Z,99.90
2022-08-01T22:17:22.809Z,99.90
2022-08-01T22:19:53.977Z,99.90
2022-08-01T22:22:42.454Z,99.90
2022-08-01T22:25:12.396Z,99.90
2022-08-01T22:28:08.278Z,99.90
2022-08-01T22:30:31.491Z,99.90
2022-08-01T22:33:15.230Z,99.90
2022-08-01T22:35:53.674Z,99.90
2022-08-01T22:38:24.188Z,99.90
2022-08-01T22:40:54.288Z,99.90
2022-08-01T22:43:31.013Z,99.90
2022-08-01T22:46:18.494Z,99.90
2022-08-01T22:48:52.863Z,99.90
2022-08-01T22:51:39.534Z,99.90
2022-08-01T22:54:10.047Z,99.90
2022-08-01T22:56:43.715Z,99.90
2022-08-01T22:59:25.152Z,99.90
2022-08-01T23:02:14.250Z,99.90
2022-08-01T23:04:47.629Z,99.90
2022-08-01T23:07:20.711Z,99.90
2022-08-01T23:09:53.514Z,99.90
2022-08-01T23:12:25.412Z,99.90
2022-08-01T23:14:55.722Z,99.90
2022-08-01T23:17:28.134Z,99.90
2022-08-01T23:20:00.961Z,99.90
2022-08-01T23:22:31.661Z,99.90
2022-08-01T23:25:04.149Z,99.90
2022-08-01T23:27:54.069Z,99.90
2022-08-01T23:30:26.818Z,99.90
2022-08-01T23:32:55.542Z,99.90
2022-08-01T23:35:25.663Z,99.90
2022-08-01T23:38:01.949Z,99.90
2022-08-01T23:40:33.167Z,99.90
2022-08-01T23:43:02.286Z,99.90
2022-08-01T23:46:02.482Z,99.90
2022-08-01T23:48:19.244Z,99.90
2022-08-01T23:50:48.862Z,99.90
2022-08-01T23:53:17.072Z,99.90
2022-08-01T23:55:47.329Z,99.90
2022-08-01T23:58:16.629Z,99.90
